sensor_id;sensor_type;location;lat;lon;timestamp;pressure;altitude;pressure_sealevel;temperature;humidity
7966;BME280;4028;43.272;26.932;2023-04-27T00:01:44;98649.13;;;10.46;100.00
7966;BME280;4028;43.272;26.932;2023-04-27T00:04:10;98656.22;;;10.46;100.00
7966;BME280;4028;43.272;26.932;2023-04-27T00:06:38;98660.81;;;10.44;100.00
7966;BME280;4028;43.272;26.932;2023-04-27T00:09:03;98665.69;;;10.30;100.00
7966;BME280;4028;43.272;26.932;2023-04-27T00:11:29;98651.63;;;10.12;100.00
7966;BME280;4028;43.272;26.932;2023-04-27T00:13:55;98669.00;;;10.32;100.00
7966;BME280;4028;43.272;26.932;2023-04-27T00:16:20;98660.88;;;10.26;100.00
7966;BME280;4028;43.272;26.932;2023-04-27T00:18:46;98628.25;;;9.99;100.00
7966;BME280;4028;43.272;26.932;2023-04-27T00:21:11;98663.44;;;10.35;100.00
7966;BME280;4028;43.272;26.932;2023-04-27T00:23:37;98677.78;;;10.15;100.00
7966;BME280;4028;43.272;26.932;2023-04-27T00:26:02;98664.56;;;10.15;100.00
7966;BME280;4028;43.272;26.932;2023-04-27T00:28:27;98674.34;;;10.23;100.00
7966;BME280;4028;43.272;26.932;2023-04-27T00:30:53;98675.03;;;10.07;100.00
7966;BME280;4028;43.272;26.932;2023-04-27T00:33:19;98661.47;;;10.02;100.00
7966;BME280;4028;43.272;26.932;2023-04-27T00:35:45;98670.47;;;10.09;100.00
7966;BME280;4028;43.272;26.932;2023-04-27T00:38:11;98676.94;;;9.97;100.00
7966;BME280;4028;43.272;26.932;2023-04-27T00:40:37;98688.28;;;10.07;100.00
7966;BME280;4028;43.272;26.932;2023-04-27T00:43:03;98698.00;;;10.06;100.00
7966;BME280;4028;43.272;26.932;2023-04-27T00:45:28;98701.72;;;10.13;100.00
7966;BME280;4028;43.272;26.932;2023-04-27T00:47:54;98690.59;;;9.92;100.00
7966;BME280;4028;43.272;26.932;2023-04-27T00:50:27;98695.75;;;10.11;100.00
7966;BME280;4028;43.272;26.932;2023-04-27T00:52:54;98698.94;;;10.15;100.00
7966;BME280;4028;43.272;26.932;2023-04-27T00:55:21;98702.63;;;10.04;100.00
7966;BME280;4028;43.272;26.932;2023-04-27T00:57:46;98700.50;;;9.90;100.00
7966;BME280;4028;43.272;26.932;2023-04-27T01:00:12;98693.84;;;9.86;100.00
7966;BME280;4028;43.272;26.932;2023-04-27T01:02:38;98699.81;;;9.70;100.00
7966;BME280;4028;43.272;26.932;2023-04-27T01:05:04;98695.28;;;9.62;100.00
7966;BME280;4028;43.272;26.932;2023-04-27T01:07:31;98697.84;;;9.72;100.00
7966;BME280;4028;43.272;26.932;2023-04-27T01:09:56;98692.31;;;9.66;100.00
7966;BME280;4028;43.272;26.932;2023-04-27T01:12:22;98695.28;;;9.62;100.00
7966;BME280;4028;43.272;26.932;2023-04-27T01:14:47;98697.81;;;9.54;100.00
7966;BME280;4028;43.272;26.932;2023-04-27T01:17:12;98700.56;;;9.62;100.00
7966;BME280;4028;43.272;26.932;2023-04-27T01:19:38;98708.41;;;9.72;100.00
7966;BME280;4028;43.272;26.932;2023-04-27T01:22:04;98701.47;;;9.71;100.00
7966;BME280;4028;43.272;26.932;2023-04-27T01:24:31;98713.94;;;9.79;100.00
7966;BME280;4028;43.272;26.932;2023-04-27T01:26:56;98718.09;;;9.81;100.00
7966;BME280;4028;43.272;26.932;2023-04-27T01:29:22;98724.84;;;9.66;100.00
7966;BME280;4028;43.272;26.932;2023-04-27T01:31:48;98728.53;;;9.55;100.00
7966;BME280;4028;43.272;26.932;2023-04-27T01:34:13;98724.50;;;9.51;100.00
7966;BME280;4028;43.272;26.932;2023-04-27T01:36:39;98731.47;;;9.52;100.00
7966;BME280;4028;43.272;26.932;2023-04-27T01:39:05;98729.91;;;9.59;100.00
7966;BME280;4028;43.272;26.932;2023-04-27T01:41:34;98738.50;;;9.61;100.00
7966;BME280;4028;43.272;26.932;2023-04-27T01:44:00;98735.38;;;9.48;100.00
7966;BME280;4028;43.272;26.932;2023-04-27T01:46:25;98731.75;;;9.49;100.00
7966;BME280;4028;43.272;26.932;2023-04-27T01:48:51;98753.84;;;9.58;100.00
7966;BME280;4028;43.272;26.932;2023-04-27T01:51:16;98702.66;;;9.31;100.00
7966;BME280;4028;43.272;26.932;2023-04-27T01:53:42;98755.72;;;9.66;100.00
7966;BME280;4028;43.272;26.932;2023-04-27T01:56:07;98751.97;;;9.68;100.00
7966;BME280;4028;43.272;26.932;2023-04-27T01:58:34;98748.03;;;9.72;100.00
7966;BME280;4028;43.272;26.932;2023-04-27T02:01:00;98753.69;;;9.77;100.00
7966;BME280;4028;43.272;26.932;2023-04-27T02:03:25;98759.31;;;9.74;100.00
7966;BME280;4028;43.272;26.932;2023-04-27T02:05:51;98757.78;;;9.72;100.00
7966;BME280;4028;43.272;26.932;2023-04-27T02:08:16;98759.13;;;9.58;100.00
7966;BME280;4028;43.272;26.932;2023-04-27T02:10:42;98766.88;;;9.59;100.00
7966;BME280;4028;43.272;26.932;2023-04-27T02:13:07;98778.81;;;9.63;100.00
7966;BME280;4028;43.272;26.932;2023-04-27T02:15:34;98714.25;;;9.48;100.00
7966;BME280;4028;43.272;26.932;2023-04-27T02:18:00;98763.38;;;9.69;100.00
7966;BME280;4028;43.272;26.932;2023-04-27T02:20:25;98755.34;;;9.60;100.00
7966;BME280;4028;43.272;26.932;2023-04-27T02:22:51;98776.03;;;9.65;100.00
7966;BME280;4028;43.272;26.932;2023-04-27T02:25:17;98771.72;;;9.64;100.00
7966;BME280;4028;43.272;26.932;2023-04-27T02:27:43;98773.03;;;9.50;100.00
7966;BME280;4028;43.272;26.932;2023-04-27T02:30:10;98783.59;;;9.50;100.00
7966;BME280;4028;43.272;26.932;2023-04-27T02:32:36;98763.22;;;9.43;100.00
7966;BME280;4028;43.272;26.932;2023-04-27T02:35:02;98784.38;;;9.60;100.00
7966;BME280;4028;43.272;26.932;2023-04-27T02:37:27;98791.72;;;9.67;100.00
7966;BME280;4028;43.272;26.932;2023-04-27T02:39:53;98789.66;;;9.60;100.00
7966;BME280;4028;43.272;26.932;2023-04-27T02:42:19;98798.59;;;9.59;100.00
7966;BME280;4028;43.272;26.932;2023-04-27T02:44:45;98800.03;;;9.44;100.00
7966;BME280;4028;43.272;26.932;2023-04-27T02:47:11;98805.13;;;9.55;100.00
7966;BME280;4028;43.272;26.932;2023-04-27T02:49:37;98800.09;;;9.62;100.00
7966;BME280;4028;43.272;26.932;2023-04-27T02:52:03;98800.19;;;9.70;100.00
7966;BME280;4028;43.272;26.932;2023-04-27T02:54:28;98796.94;;;9.58;100.00
7966;BME280;4028;43.272;26.932;2023-04-27T02:56:54;98819.28;;;9.64;100.00
7966;BME280;4028;43.272;26.932;2023-04-27T02:59:19;98820.34;;;9.44;100.00
7966;BME280;4028;43.272;26.932;2023-04-27T03:01:45;98820.91;;;9.37;100.00
7966;BME280;4028;43.272;26.932;2023-04-27T03:04:10;98828.13;;;9.35;100.00
7966;BME280;4028;43.272;26.932;2023-04-27T03:06:38;98826.19;;;9.37;100.00
7966;BME280;4028;43.272;26.932;2023-04-27T03:09:05;98831.47;;;9.37;100.00
7966;BME280;4028;43.272;26.932;2023-04-27T03:11:31;98829.13;;;9.34;100.00
7966;BME280;4028;43.272;26.932;2023-04-27T03:13:57;98807.22;;;9.05;100.00
7966;BME280;4028;43.272;26.932;2023-04-27T03:16:23;98829.56;;;9.10;100.00
7966;BME280;4028;43.272;26.932;2023-04-27T03:18:48;98838.19;;;9.22;100.00
7966;BME280;4028;43.272;26.932;2023-04-27T03:21:14;98835.25;;;9.25;100.00
7966;BME280;4028;43.272;26.932;2023-04-27T03:23:41;98828.72;;;9.20;100.00
7966;BME280;4028;43.272;26.932;2023-04-27T03:26:10;98833.72;;;9.32;100.00
7966;BME280;4028;43.272;26.932;2023-04-27T03:28:36;98840.81;;;9.32;100.00
7966;BME280;4028;43.272;26.932;2023-04-27T03:31:06;98840.81;;;9.32;100.00
7966;BME280;4028;43.272;26.932;2023-04-27T03:33:32;98837.59;;;9.38;100.00
7966;BME280;4028;43.272;26.932;2023-04-27T03:35:58;98837.16;;;9.43;100.00
7966;BME280;4028;43.272;26.932;2023-04-27T03:38:24;98824.50;;;9.36;100.00
7966;BME280;4028;43.272;26.932;2023-04-27T03:40:50;98841.03;;;9.48;100.00
7966;BME280;4028;43.272;26.932;2023-04-27T03:43:17;98844.78;;;9.46;100.00
7966;BME280;4028;43.272;26.932;2023-04-27T03:45:42;98820.25;;;9.16;100.00
7966;BME280;4028;43.272;26.932;2023-04-27T03:48:08;98834.53;;;9.33;100.00
7966;BME280;4028;43.272;26.932;2023-04-27T03:50:33;98846.75;;;9.34;100.00
7966;BME280;4028;43.272;26.932;2023-04-27T03:52:59;98859.56;;;9.29;100.00
7966;BME280;4028;43.272;26.932;2023-04-27T03:55:24;98859.19;;;9.04;100.00
7966;BME280;4028;43.272;26.932;2023-04-27T03:57:50;98849.19;;;8.98;100.00
7966;BME280;4028;43.272;26.932;2023-04-27T04:00:16;98867.66;;;9.08;100.00
7966;BME280;4028;43.272;26.932;2023-04-27T04:02:43;98868.63;;;9.07;100.00
7966;BME280;4028;43.272;26.932;2023-04-27T04:05:09;98867.09;;;9.04;100.00
7966;BME280;4028;43.272;26.932;2023-04-27T04:07:35;98876.16;;;9.02;100.00
7966;BME280;4028;43.272;26.932;2023-04-27T04:10:00;98875.16;;;8.93;100.00
7966;BME280;4028;43.272;26.932;2023-04-27T04:12:26;98875.44;;;8.90;100.00
7966;BME280;4028;43.272;26.932;2023-04-27T04:14:52;98881.00;;;8.97;100.00
7966;BME280;4028;43.272;26.932;2023-04-27T04:17:17;98886.81;;;9.10;100.00
7966;BME280;4028;43.272;26.932;2023-04-27T04:19:43;98888.09;;;9.06;100.00
7966;BME280;4028;43.272;26.932;2023-04-27T04:22:09;98889.34;;;9.11;100.00
7966;BME280;4028;43.272;26.932;2023-04-27T04:24:34;98899.31;;;9.18;100.00
7966;BME280;4028;43.272;26.932;2023-04-27T04:27:00;98880.19;;;9.06;100.00
7966;BME280;4028;43.272;26.932;2023-04-27T04:29:27;98888.34;;;9.13;100.00
7966;BME280;4028;43.272;26.932;2023-04-27T04:31:54;98891.09;;;9.21;100.00
7966;BME280;4028;43.272;26.932;2023-04-27T04:34:20;98874.03;;;9.05;100.00
7966;BME280;4028;43.272;26.932;2023-04-27T04:36:46;98885.97;;;9.19;100.00
7966;BME280;4028;43.272;26.932;2023-04-27T04:39:11;98849.88;;;9.10;100.00
7966;BME280;4028;43.272;26.932;2023-04-27T04:41:37;98887.47;;;9.41;100.00
7966;BME280;4028;43.272;26.932;2023-04-27T04:44:03;98881.06;;;9.44;100.00
7966;BME280;4028;43.272;26.932;2023-04-27T04:46:29;98894.78;;;9.57;100.00
7966;BME280;4028;43.272;26.932;2023-04-27T04:48:55;98886.22;;;9.35;100.00
7966;BME280;4028;43.272;26.932;2023-04-27T04:51:20;98888.44;;;9.30;100.00
7966;BME280;4028;43.272;26.932;2023-04-27T04:53:46;98885.94;;;9.38;100.00
7966;BME280;4028;43.272;26.932;2023-04-27T04:56:12;98887.84;;;9.46;100.00
7966;BME280;4028;43.272;26.932;2023-04-27T04:58:38;98890.47;;;9.56;100.00
7966;BME280;4028;43.272;26.932;2023-04-27T05:01:05;98888.53;;;9.58;100.00
7966;BME280;4028;43.272;26.932;2023-04-27T05:03:31;98898.81;;;9.51;100.00
7966;BME280;4028;43.272;26.932;2023-04-27T05:05:56;98895.19;;;9.62;100.00
7966;BME280;4028;43.272;26.932;2023-04-27T05:08:22;98899.22;;;9.56;100.00
7966;BME280;4028;43.272;26.932;2023-04-27T05:10:49;98910.34;;;9.60;100.00
7966;BME280;4028;43.272;26.932;2023-04-27T05:13:14;98903.47;;;9.77;100.00
7966;BME280;4028;43.272;26.932;2023-04-27T05:15:40;98905.69;;;9.81;100.00
7966;BME280;4028;43.272;26.932;2023-04-27T05:18:05;98909.97;;;9.92;100.00
7966;BME280;4028;43.272;26.932;2023-04-27T05:20:34;98906.38;;;9.93;100.00
7966;BME280;4028;43.272;26.932;2023-04-27T05:22:59;98913.28;;;10.04;100.00
7966;BME280;4028;43.272;26.932;2023-04-27T05:25:28;98898.44;;;9.93;100.00
7966;BME280;4028;43.272;26.932;2023-04-27T05:27:53;98921.72;;;9.70;100.00
7966;BME280;4028;43.272;26.932;2023-04-27T05:30:19;98916.50;;;9.51;100.00
7966;BME280;4028;43.272;26.932;2023-04-27T05:32:45;98906.22;;;9.48;100.00
7966;BME280;4028;43.272;26.932;2023-04-27T05:35:10;98915.25;;;9.35;100.00
7966;BME280;4028;43.272;26.932;2023-04-27T05:37:36;98920.94;;;9.50;100.00
7966;BME280;4028;43.272;26.932;2023-04-27T05:40:01;98910.13;;;9.44;100.00
7966;BME280;4028;43.272;26.932;2023-04-27T05:42:29;98922.47;;;9.62;100.00
7966;BME280;4028;43.272;26.932;2023-04-27T05:44:54;98922.88;;;9.58;100.00
7966;BME280;4028;43.272;26.932;2023-04-27T05:47:20;98922.91;;;9.48;100.00
7966;BME280;4028;43.272;26.932;2023-04-27T05:49:49;98920.66;;;9.53;100.00
7966;BME280;4028;43.272;26.932;2023-04-27T05:52:15;98934.84;;;9.52;100.00
7966;BME280;4028;43.272;26.932;2023-04-27T05:54:45;98932.75;;;9.46;100.00
7966;BME280;4028;43.272;26.932;2023-04-27T05:57:11;98932.63;;;9.48;100.00
7966;BME280;4028;43.272;26.932;2023-04-27T05:59:36;98941.06;;;9.61;100.00
7966;BME280;4028;43.272;26.932;2023-04-27T06:02:02;98935.38;;;9.56;100.00
7966;BME280;4028;43.272;26.932;2023-04-27T06:04:27;98945.22;;;9.83;100.00
7966;BME280;4028;43.272;26.932;2023-04-27T06:06:53;98935.75;;;9.80;100.00
7966;BME280;4028;43.272;26.932;2023-04-27T06:09:20;98938.09;;;9.83;100.00
7966;BME280;4028;43.272;26.932;2023-04-27T06:11:46;98942.72;;;9.62;100.00
7966;BME280;4028;43.272;26.932;2023-04-27T06:14:12;98939.66;;;9.67;100.00
7966;BME280;4028;43.272;26.932;2023-04-27T06:16:38;98939.38;;;9.79;100.00
7966;BME280;4028;43.272;26.932;2023-04-27T06:19:05;98928.66;;;9.81;100.00
7966;BME280;4028;43.272;26.932;2023-04-27T06:21:32;98938.38;;;9.80;100.00
7966;BME280;4028;43.272;26.932;2023-04-27T06:23:58;98927.53;;;9.83;100.00
7966;BME280;4028;43.272;26.932;2023-04-27T06:26:23;98934.44;;;9.94;100.00
7966;BME280;4028;43.272;26.932;2023-04-27T06:28:49;98945.22;;;10.10;100.00
7966;BME280;4028;43.272;26.932;2023-04-27T06:31:14;98932.13;;;10.19;100.00
7966;BME280;4028;43.272;26.932;2023-04-27T06:33:40;98939.91;;;10.20;100.00
7966;BME280;4028;43.272;26.932;2023-04-27T06:36:06;98940.91;;;10.19;100.00
7966;BME280;4028;43.272;26.932;2023-04-27T06:38:31;98934.09;;;10.07;100.00
7966;BME280;4028;43.272;26.932;2023-04-27T06:40:57;98931.78;;;10.04;100.00
7966;BME280;4028;43.272;26.932;2023-04-27T06:43:23;98937.78;;;10.33;100.00
7966;BME280;4028;43.272;26.932;2023-04-27T06:45:49;98950.03;;;10.34;100.00
7966;BME280;4028;43.272;26.932;2023-04-27T06:48:14;98950.75;;;10.27;100.00
7966;BME280;4028;43.272;26.932;2023-04-27T06:50:41;98944.81;;;10.43;100.00
7966;BME280;4028;43.272;26.932;2023-04-27T06:53:07;98943.56;;;10.64;100.00
7966;BME280;4028;43.272;26.932;2023-04-27T06:55:33;98940.19;;;10.72;100.00
7966;BME280;4028;43.272;26.932;2023-04-27T06:57:58;98949.13;;;10.71;100.00
7966;BME280;4028;43.272;26.932;2023-04-27T07:00:23;98946.00;;;10.58;100.00
7966;BME280;4028;43.272;26.932;2023-04-27T07:02:49;98952.38;;;10.65;100.00
7966;BME280;4028;43.272;26.932;2023-04-27T07:05:15;98949.91;;;10.54;100.00
7966;BME280;4028;43.272;26.932;2023-04-27T07:07:41;98926.19;;;10.44;100.00
7966;BME280;4028;43.272;26.932;2023-04-27T07:10:07;98944.50;;;10.73;100.00
7966;BME280;4028;43.272;26.932;2023-04-27T07:12:33;98944.13;;;11.04;100.00
7966;BME280;4028;43.272;26.932;2023-04-27T07:14:58;98947.53;;;11.14;100.00
7966;BME280;4028;43.272;26.932;2023-04-27T07:17:24;98953.59;;;11.06;100.00
7966;BME280;4028;43.272;26.932;2023-04-27T07:19:49;98956.31;;;11.32;100.00
7966;BME280;4028;43.272;26.932;2023-04-27T07:22:15;98950.88;;;11.60;97.82
7966;BME280;4028;43.272;26.932;2023-04-27T07:24:41;98952.97;;;11.48;89.90
7966;BME280;4028;43.272;26.932;2023-04-27T07:27:06;98955.16;;;11.53;88.47
7966;BME280;4028;43.272;26.932;2023-04-27T07:29:32;98937.91;;;11.49;84.76
7966;BME280;4028;43.272;26.932;2023-04-27T07:31:58;98955.78;;;11.47;79.50
7966;BME280;4028;43.272;26.932;2023-04-27T07:34:23;98937.78;;;11.58;77.98
7966;BME280;4028;43.272;26.932;2023-04-27T07:36:50;98960.75;;;11.76;76.38
7966;BME280;4028;43.272;26.932;2023-04-27T07:39:18;98951.59;;;11.88;73.05
7966;BME280;4028;43.272;26.932;2023-04-27T07:41:43;98950.63;;;11.97;71.51
7966;BME280;4028;43.272;26.932;2023-04-27T07:44:09;98956.41;;;11.92;76.95
7966;BME280;4028;43.272;26.932;2023-04-27T07:46:36;98932.56;;;11.92;69.43
7966;BME280;4028;43.272;26.932;2023-04-27T07:49:02;98957.94;;;12.29;68.23
7966;BME280;4028;43.272;26.932;2023-04-27T07:51:28;98947.53;;;12.36;67.56
7966;BME280;4028;43.272;26.932;2023-04-27T07:53:53;98955.06;;;12.57;66.21
7966;BME280;4028;43.272;26.932;2023-04-27T07:56:19;98955.22;;;12.55;66.69
7966;BME280;4028;43.272;26.932;2023-04-27T07:58:45;98951.16;;;12.93;66.18
7966;BME280;4028;43.272;26.932;2023-04-27T08:01:11;98943.88;;;13.20;63.36
7966;BME280;4028;43.272;26.932;2023-04-27T08:03:36;98952.56;;;13.63;60.43
7966;BME280;4028;43.272;26.932;2023-04-27T08:06:02;98950.03;;;13.77;59.82
7966;BME280;4028;43.272;26.932;2023-04-27T08:08:28;98950.19;;;13.76;58.82
7966;BME280;4028;43.272;26.932;2023-04-27T08:10:54;98951.34;;;13.98;58.31
7966;BME280;4028;43.272;26.932;2023-04-27T08:13:20;98945.28;;;14.12;57.74
7966;BME280;4028;43.272;26.932;2023-04-27T08:15:46;98946.47;;;14.10;57.43
7966;BME280;4028;43.272;26.932;2023-04-27T08:18:11;98943.91;;;13.77;56.98
7966;BME280;4028;43.272;26.932;2023-04-27T08:20:37;98961.56;;;14.25;57.67
7966;BME280;4028;43.272;26.932;2023-04-27T08:23:02;98965.16;;;13.85;54.54
7966;BME280;4028;43.272;26.932;2023-04-27T08:25:27;98966.59;;;14.04;57.26
7966;BME280;4028;43.272;26.932;2023-04-27T08:27:53;98949.00;;;14.42;54.94
7966;BME280;4028;43.272;26.932;2023-04-27T08:30:18;98955.66;;;15.08;53.05
7966;BME280;4028;43.272;26.932;2023-04-27T08:32:44;98970.47;;;15.11;50.73
7966;BME280;4028;43.272;26.932;2023-04-27T08:35:09;98962.97;;;15.52;50.30
7966;BME280;4028;43.272;26.932;2023-04-27T08:37:35;98961.50;;;15.50;49.84
7966;BME280;4028;43.272;26.932;2023-04-27T08:40:03;98955.88;;;15.68;48.73
7966;BME280;4028;43.272;26.932;2023-04-27T08:42:30;98967.34;;;15.30;49.80
7966;BME280;4028;43.272;26.932;2023-04-27T08:44:55;98972.47;;;15.78;49.21
7966;BME280;4028;43.272;26.932;2023-04-27T08:47:21;98944.66;;;15.49;48.40
7966;BME280;4028;43.272;26.932;2023-04-27T08:49:46;98960.06;;;16.44;48.28
7966;BME280;4028;43.272;26.932;2023-04-27T08:52:13;98955.63;;;17.24;47.14
7966;BME280;4028;43.272;26.932;2023-04-27T08:54:39;98954.13;;;17.64;44.87
7966;BME280;4028;43.272;26.932;2023-04-27T08:57:11;98941.78;;;17.91;45.02
7966;BME280;4028;43.272;26.932;2023-04-27T08:59:37;98963.13;;;16.92;45.64
7966;BME280;4028;43.272;26.932;2023-04-27T09:02:03;98955.97;;;16.78;46.71
7966;BME280;4028;43.272;26.932;2023-04-27T09:04:38;98948.25;;;15.79;46.20
7966;BME280;4028;43.272;26.932;2023-04-27T09:07:15;98945.97;;;15.91;45.64
7966;BME280;4028;43.272;26.932;2023-04-27T09:09:42;98948.91;;;15.67;48.08
7966;BME280;4028;43.272;26.932;2023-04-27T09:12:18;98957.06;;;15.42;48.06
7966;BME280;4028;43.272;26.932;2023-04-27T09:15:02;98962.28;;;15.13;49.39
7966;BME280;4028;43.272;26.932;2023-04-27T09:17:29;98944.69;;;15.03;49.04
7966;BME280;4028;43.272;26.932;2023-04-27T09:20:06;98951.69;;;15.04;49.86
7966;BME280;4028;43.272;26.932;2023-04-27T09:22:50;98948.19;;;14.81;49.80
7966;BME280;4028;43.272;26.932;2023-04-27T09:25:28;98941.63;;;14.92;50.97
7966;BME280;4028;43.272;26.932;2023-04-27T09:27:55;98932.13;;;14.66;49.85
7966;BME280;4028;43.272;26.932;2023-04-27T09:30:22;98928.41;;;14.98;50.28
7966;BME280;4028;43.272;26.932;2023-04-27T09:32:52;98943.97;;;14.87;50.46
7966;BME280;4028;43.272;26.932;2023-04-27T09:35:23;98948.34;;;14.40;50.41
7966;BME280;4028;43.272;26.932;2023-04-27T09:37:49;98945.56;;;14.34;51.12
7966;BME280;4028;43.272;26.932;2023-04-27T09:40:18;98933.41;;;13.84;52.45
7966;BME280;4028;43.272;26.932;2023-04-27T09:42:44;98951.16;;;13.99;52.58
7966;BME280;4028;43.272;26.932;2023-04-27T09:45:10;98940.88;;;13.88;53.92
7966;BME280;4028;43.272;26.932;2023-04-27T09:47:37;98951.88;;;13.77;54.19
7966;BME280;4028;43.272;26.932;2023-04-27T09:50:04;98952.53;;;13.71;55.39
7966;BME280;4028;43.272;26.932;2023-04-27T09:52:31;98953.41;;;13.47;56.12
7966;BME280;4028;43.272;26.932;2023-04-27T09:54:57;98939.44;;;13.37;56.74
7966;BME280;4028;43.272;26.932;2023-04-27T09:57:38;98926.50;;;13.42;58.16
7966;BME280;4028;43.272;26.932;2023-04-27T10:00:17;98944.94;;;13.51;57.76
7966;BME280;4028;43.272;26.932;2023-04-27T10:02:55;98929.78;;;13.36;59.08
7966;BME280;4028;43.272;26.932;2023-04-27T10:07:54;98944.72;;;13.20;58.66
7966;BME280;4028;43.272;26.932;2023-04-27T10:10:19;98947.53;;;13.19;59.43
7966;BME280;4028;43.272;26.932;2023-04-27T10:12:59;98943.72;;;12.97;61.36
7966;BME280;4028;43.272;26.932;2023-04-27T10:15:26;98946.88;;;13.17;61.36
7966;BME280;4028;43.272;26.932;2023-04-27T10:17:52;98935.75;;;13.13;62.24
7966;BME280;4028;43.272;26.932;2023-04-27T10:20:29;98957.38;;;13.26;59.97
7966;BME280;4028;43.272;26.932;2023-04-27T10:22:57;98950.75;;;13.22;59.79
7966;BME280;4028;43.272;26.932;2023-04-27T10:25:37;98961.69;;;13.27;61.14
7966;BME280;4028;43.272;26.932;2023-04-27T10:28:03;98950.56;;;13.32;59.98
7966;BME280;4028;43.272;26.932;2023-04-27T10:30:36;98959.38;;;13.49;60.75
7966;BME280;4028;43.272;26.932;2023-04-27T10:33:07;98964.34;;;13.68;59.13
7966;BME280;4028;43.272;26.932;2023-04-27T10:35:35;98962.69;;;13.67;59.26
7966;BME280;4028;43.272;26.932;2023-04-27T10:38:15;98916.03;;;13.32;59.42
7966;BME280;4028;43.272;26.932;2023-04-27T10:40:43;98968.50;;;13.63;59.87
7966;BME280;4028;43.272;26.932;2023-04-27T10:43:12;98965.50;;;13.66;59.71
7966;BME280;4028;43.272;26.932;2023-04-27T10:45:39;98960.50;;;13.87;60.37
7966;BME280;4028;43.272;26.932;2023-04-27T10:48:05;98958.13;;;14.00;59.68
7966;BME280;4028;43.272;26.932;2023-04-27T10:50:32;98962.09;;;14.13;59.96
7966;BME280;4028;43.272;26.932;2023-04-27T10:53:03;98960.03;;;14.31;58.06
7966;BME280;4028;43.272;26.932;2023-04-27T10:55:29;98956.72;;;14.29;58.12
7966;BME280;4028;43.272;26.932;2023-04-27T10:57:55;98953.53;;;14.34;60.96
7966;BME280;4028;43.272;26.932;2023-04-27T11:00:42;98958.00;;;14.49;58.94
7966;BME280;4028;43.272;26.932;2023-04-27T11:03:16;98948.81;;;14.52;56.72
7966;BME280;4028;43.272;26.932;2023-04-27T11:05:44;98941.53;;;14.77;56.15
7966;BME280;4028;43.272;26.932;2023-04-27T11:08:12;98942.97;;;14.88;56.47
7966;BME280;4028;43.272;26.932;2023-04-27T11:10:43;98941.44;;;14.93;56.12
7966;BME280;4028;43.272;26.932;2023-04-27T11:13:11;98943.63;;;14.59;55.87
7966;BME280;4028;43.272;26.932;2023-04-27T11:15:44;98957.16;;;14.41;58.61
7966;BME280;4028;43.272;26.932;2023-04-27T11:18:09;98938.03;;;14.37;58.58
7966;BME280;4028;43.272;26.932;2023-04-27T11:20:35;98955.53;;;14.31;59.61
7966;BME280;4028;43.272;26.932;2023-04-27T11:23:01;98950.28;;;14.15;59.44
7966;BME280;4028;43.272;26.932;2023-04-27T11:25:27;98946.78;;;14.15;59.94
7966;BME280;4028;43.272;26.932;2023-04-27T11:27:53;98954.25;;;14.19;59.60
7966;BME280;4028;43.272;26.932;2023-04-27T11:30:20;98961.56;;;14.17;59.09
7966;BME280;4028;43.272;26.932;2023-04-27T11:32:46;98969.53;;;14.17;59.26
7966;BME280;4028;43.272;26.932;2023-04-27T11:35:12;98966.09;;;14.00;57.63
7966;BME280;4028;43.272;26.932;2023-04-27T11:37:38;98961.84;;;13.83;58.29
7966;BME280;4028;43.272;26.932;2023-04-27T11:40:03;98975.16;;;13.67;60.04
7966;BME280;4028;43.272;26.932;2023-04-27T11:42:29;98975.47;;;13.72;61.15
7966;BME280;4028;43.272;26.932;2023-04-27T11:45:03;98973.66;;;13.72;59.89
7966;BME280;4028;43.272;26.932;2023-04-27T11:47:33;98967.31;;;13.65;59.90
7966;BME280;4028;43.272;26.932;2023-04-27T11:50:04;98954.88;;;13.74;59.41
7966;BME280;4028;43.272;26.932;2023-04-27T11:52:35;98970.81;;;13.82;59.80
7966;BME280;4028;43.272;26.932;2023-04-27T11:55:02;98957.69;;;13.72;61.21
7966;BME280;4028;43.272;26.932;2023-04-27T11:57:31;98982.13;;;13.68;61.02
7966;BME280;4028;43.272;26.932;2023-04-27T11:59:59;98976.47;;;13.87;61.97
7966;BME280;4028;43.272;26.932;2023-04-27T12:02:29;98978.97;;;13.72;61.63
7966;BME280;4028;43.272;26.932;2023-04-27T12:04:57;98973.63;;;13.56;64.66
7966;BME280;4028;43.272;26.932;2023-04-27T12:07:23;98980.28;;;13.76;64.66
7966;BME280;4028;43.272;26.932;2023-04-27T12:09:48;98983.75;;;13.93;65.45
7966;BME280;4028;43.272;26.932;2023-04-27T12:12:14;98982.59;;;13.71;63.97
7966;BME280;4028;43.272;26.932;2023-04-27T12:14:45;98991.59;;;13.62;64.88
7966;BME280;4028;43.272;26.932;2023-04-27T12:17:10;98982.78;;;13.53;68.43
7966;BME280;4028;43.272;26.932;2023-04-27T12:19:36;98985.44;;;13.53;68.39
7966;BME280;4028;43.272;26.932;2023-04-27T12:22:02;98982.63;;;13.55;67.03
7966;BME280;4028;43.272;26.932;2023-04-27T12:24:28;98985.78;;;13.50;66.73
7966;BME280;4028;43.272;26.932;2023-04-27T12:26:54;98978.63;;;13.84;67.20
7966;BME280;4028;43.272;26.932;2023-04-27T12:29:19;98975.25;;;14.06;64.71
7966;BME280;4028;43.272;26.932;2023-04-27T12:31:45;98984.66;;;14.25;62.26
7966;BME280;4028;43.272;26.932;2023-04-27T12:34:11;98972.19;;;14.34;62.62
7966;BME280;4028;43.272;26.932;2023-04-27T12:36:36;98966.88;;;14.25;64.22
7966;BME280;4028;43.272;26.932;2023-04-27T12:39:14;98967.50;;;14.36;64.99
7966;BME280;4028;43.272;26.932;2023-04-27T12:41:41;98964.63;;;14.53;65.19
7966;BME280;4028;43.272;26.932;2023-04-27T12:44:07;98969.22;;;14.68;63.43
7966;BME280;4028;43.272;26.932;2023-04-27T12:46:32;98964.06;;;14.97;62.87
7966;BME280;4028;43.272;26.932;2023-04-27T12:48:58;98963.59;;;15.17;62.24
7966;BME280;4028;43.272;26.932;2023-04-27T12:51:23;98968.50;;;15.28;59.34
7966;BME280;4028;43.272;26.932;2023-04-27T12:53:49;98974.84;;;15.27;57.39
7966;BME280;4028;43.272;26.932;2023-04-27T12:56:15;98972.00;;;15.28;58.68
7966;BME280;4028;43.272;26.932;2023-04-27T12:58:40;98971.41;;;15.18;59.20
7966;BME280;4028;43.272;26.932;2023-04-27T13:01:06;98962.53;;;15.26;57.40
7966;BME280;4028;43.272;26.932;2023-04-27T13:03:40;98946.66;;;15.09;57.92
7966;BME280;4028;43.272;26.932;2023-04-27T13:06:06;98978.31;;;15.50;57.58
7966;BME280;4028;43.272;26.932;2023-04-27T13:08:32;98972.72;;;15.68;56.20
7966;BME280;4028;43.272;26.932;2023-04-27T13:10:58;98979.09;;;15.82;56.37